createdAt,value
2019-03-09T00:01:20.078Z,5.90
2019-03-09T00:03:55.612Z,6.00
2019-03-09T00:06:28.198Z,6.20
2019-03-09T00:09:03.646Z,6.20
2019-03-09T00:11:35.957Z,6.20
2019-03-09T00:14:07.146Z,6.20
2019-03-09T00:16:43.713Z,6.10
2019-03-09T00:19:21.284Z,6.30
2019-03-09T00:21:56.028Z,6.40
2019-03-09T00:24:45.900Z,6.60
2019-03-09T00:27:41.502Z,6.70
2019-03-09T00:30:37.494Z,6.90
2019-03-09T00:33:09.314Z,7.00
2019-03-09T00:35:40.574Z,7.10
2019-03-09T00:38:13.843Z,7.20
2019-03-09T00:40:44.507Z,7.10
2019-03-09T00:43:15.716Z,7.10
2019-03-09T00:45:47.306Z,6.90
2019-03-09T00:48:18.506Z,6.90
2019-03-09T00:50:49.758Z,6.90
2019-03-09T00:53:20.815Z,6.90
2019-03-09T00:55:51.432Z,6.80
2019-03-09T00:58:22.467Z,6.80
2019-03-09T01:00:53.284Z,6.70
2019-03-09T01:03:25.061Z,6.70
2019-03-09T01:05:59.315Z,6.60
2019-03-09T01:08:33.045Z,6.60
2019-03-09T01:11:07.525Z,6.60
2019-03-09T01:13:41.287Z,6.70
2019-03-09T01:16:18.823Z,6.60
2019-03-09T01:18:51.778Z,6.50
2019-03-09T01:21:26.203Z,6.50
2019-03-09T01:24:03.597Z,6.50
2019-03-09T01:26:34.632Z,6.60
2019-03-09T01:29:05.462Z,6.60
2019-03-09T01:31:36.411Z,6.60
2019-03-09T01:34:08.128Z,6.50
2019-03-09T01:36:40.934Z,6.40
2019-03-09T01:39:12.352Z,6.50
2019-03-09T01:41:44.095Z,6.40
2019-03-09T01:44:17.975Z,6.40
2019-03-09T01:46:51.844Z,6.40
2019-03-09T01:49:22.616Z,6.40
2019-03-09T01:51:54.238Z,6.40
2019-03-09T01:54:25.840Z,6.40
2019-03-09T01:57:11.709Z,6.50
2019-03-09T01:59:43.330Z,6.50
2019-03-09T03:02:28.446Z,6.70
2019-03-09T03:05:00.607Z,6.70
2019-03-09T03:07:32.831Z,6.80
2019-03-09T03:10:05.176Z,6.90
2019-03-09T03:12:39.177Z,7.10
2019-03-09T03:15:18.274Z,7.20
2019-03-09T03:17:56.485Z,7.30
2019-03-09T03:20:32.339Z,7.30
2019-03-09T03:23:04.382Z,7.40
2019-03-09T03:25:39.324Z,7.40
2019-03-09T03:28:10.613Z,7.30
2019-03-09T03:30:42.442Z,7.30
2019-03-09T03:33:14.589Z,7.40
2019-03-09T03:35:46.322Z,7.30
2019-03-09T03:38:18.977Z,7.30
2019-03-09T03:40:52.293Z,7.30
2019-03-09T03:43:25.460Z,7.40
2019-03-09T03:45:57.649Z,7.50
2019-03-09T03:48:29.259Z,7.60
2019-03-09T03:51:02.847Z,7.50
2019-03-09T03:53:34.323Z,7.60
2019-03-09T03:56:06.107Z,7.60
2019-03-09T03:58:37.207Z,7.70
2019-03-09T04:01:08.979Z,7.70
2019-03-09T04:03:39.664Z,7.70
2019-03-09T04:06:11.056Z,7.70
2019-03-09T04:08:43.371Z,7.80
2019-03-09T04:11:16.253Z,7.80
2019-03-09T04:13:47.923Z,7.70
2019-03-09T04:16:19.013Z,7.80
2019-03-09T04:18:53.122Z,7.80
2019-03-09T04:21:26.627Z,7.80
2019-03-09T04:24:02.578Z,7.90
2019-03-09T04:26:34.338Z,7.90
2019-03-09T04:29:06.247Z,7.80
2019-03-09T04:31:37.729Z,7.80
2019-03-09T04:34:09.534Z,7.70
2019-03-09T04:36:40.734Z,7.80
2019-03-09T04:39:11.374Z,7.80
2019-03-09T04:41:42.401Z,7.80
2019-03-09T04:44:13.086Z,7.60
2019-03-09T04:46:45.034Z,7.60
2019-03-09T04:49:21.681Z,7.70
2019-03-09T04:51:53.103Z,7.70
2019-03-09T04:54:25.601Z,7.80
2019-03-09T04:56:57.043Z,7.90
2019-03-09T04:59:27.989Z,8.00
2019-03-09T05:01:59.045Z,8.00
2019-03-09T05:05:10.652Z,8.00
2019-03-09T05:08:06.764Z,8.10
2019-03-09T05:11:21.541Z,8.10
2019-03-09T05:14:09.843Z,8.10
2019-03-09T05:16:45.687Z,8.20
2019-03-09T05:19:16.666Z,8.30
2019-03-09T05:21:48.488Z,8.30
2019-03-09T05:24:19.170Z,8.40
2019-03-09T05:26:50.901Z,8.40
2019-03-09T05:29:22.779Z,8.40
2019-03-09T05:31:54.290Z,8.40
2019-03-09T05:34:26.287Z,8.40
2019-03-09T05:36:57.591Z,8.40
2019-03-09T05:39:29.312Z,8.40
2019-03-09T05:42:01.097Z,8.40
2019-03-09T05:44:32.464Z,8.50
2019-03-09T05:47:03.194Z,8.50
2019-03-09T05:49:33.875Z,8.50
2019-03-09T05:52:36.736Z,8.60
2019-03-09T05:55:20.974Z,8.70
2019-03-09T05:57:52.246Z,8.60
2019-03-09T06:00:22.532Z,8.50
2019-03-09T06:02:53.132Z,8.70
2019-03-09T06:05:39.851Z,8.60
2019-03-09T06:08:12.952Z,8.60
2019-03-09T06:10:50.251Z,8.60
2019-03-09T06:13:21.261Z,8.70
2019-03-09T06:15:52.570Z,8.70
2019-03-09T06:18:26.207Z,8.80
2019-03-09T06:20:57.764Z,8.80
2019-03-09T06:23:28.414Z,8.90
2019-03-09T06:26:00.192Z,8.90
2019-03-09T06:28:31.481Z,8.80
2019-03-09T06:31:06.480Z,8.80
2019-03-09T06:33:39.756Z,8.90
2019-03-09T06:37:01.892Z,8.90
2019-03-09T06:39:42.831Z,8.90
2019-03-09T06:42:47.428Z,8.90
2019-03-09T06:45:20.106Z,8.90
2019-03-09T06:47:51.798Z,8.80
2019-03-09T06:50:23.037Z,8.80
2019-03-09T06:52:53.978Z,8.80
2019-03-09T06:55:25.016Z,8.70
2019-03-09T06:57:55.684Z,8.60
2019-03-09T07:00:36.212Z,8.40
2019-03-09T07:03:08.890Z,8.30
2019-03-09T07:05:40.963Z,8.30
2019-03-09T07:08:12.094Z,8.30
2019-03-09T07:10:43.144Z,8.40
2019-03-09T07:13:24.402Z,8.40
2019-03-09T07:15:55.034Z,8.40
2019-03-09T07:18:38.713Z,8.50
2019-03-09T07:21:09.568Z,8.50
2019-03-09T07:23:40.885Z,8.60
2019-03-09T07:26:12.299Z,8.60
2019-03-09T07:28:43.367Z,8.60
2019-03-09T07:31:16.980Z,8.70
2019-03-09T07:33:48.316Z,8.70
2019-03-09T07:36:19.680Z,8.60
2019-03-09T07:38:51.869Z,8.70
2019-03-09T07:41:23.182Z,8.70
2019-03-09T07:43:54.430Z,8.80
2019-03-09T07:46:25.858Z,8.70
2019-03-09T07:48:57.214Z,8.70
2019-03-09T07:51:28.571Z,8.70
2019-03-09T07:54:00.339Z,8.70
2019-03-09T07:56:31.467Z,8.70
2019-03-09T07:59:02.153Z,8.60
2019-03-09T08:01:33.637Z,8.60
2019-03-09T08:04:04.507Z,8.70
2019-03-09T08:06:35.289Z,8.70
2019-03-09T08:09:07.462Z,8.80
2019-03-09T08:11:39.253Z,8.90
2019-03-09T08:14:09.537Z,9.00
2019-03-09T08:16:40.488Z,9.00
2019-03-09T08:19:11.530Z,9.00
2019-03-09T08:21:42.648Z,9.10
2019-03-09T08:24:14.273Z,9.20
2019-03-09T08:26:45.515Z,9.30
2019-03-09T08:29:16.234Z,9.40
2019-03-09T08:31:47.321Z,9.40
2019-03-09T08:34:18.028Z,9.40
2019-03-09T08:36:49.590Z,9.50
2019-03-09T08:39:20.981Z,9.50
2019-03-09T08:41:52.540Z,9.50
2019-03-09T08:44:23.720Z,9.50
2019-03-09T08:46:54.026Z,9.50
2019-03-09T08:49:25.077Z,9.40
2019-03-09T08:51:56.324Z,9.50
2019-03-09T08:54:28.110Z,9.50
2019-03-09T08:56:58.797Z,9.50
2019-03-09T08:59:29.774Z,9.60
2019-03-09T09:02:00.867Z,9.50
2019-03-09T09:04:31.538Z,9.60
2019-03-09T09:07:02.605Z,9.50
2019-03-09T09:09:33.625Z,9.50
2019-03-09T09:12:04.269Z,9.60
2019-03-09T09:14:46.232Z,9.70
2019-03-09T09:17:17.153Z,9.80
2019-03-09T09:19:48.394Z,9.80
2019-03-09T09:22:19.445Z,9.80
2019-03-09T09:25:05.660Z,9.70
2019-03-09T09:27:36.743Z,9.90
2019-03-09T09:30:10.643Z,9.80
2019-03-09T09:32:42.254Z,9.80
2019-03-09T09:35:12.888Z,9.90
2019-03-09T09:37:43.902Z,10.10
2019-03-09T09:40:20.723Z,10.30
2019-03-09T09:42:52.293Z,10.40
2019-03-09T09:45:23.935Z,10.30
2019-03-09T09:47:55.243Z,10.30
2019-03-09T09:50:26.656Z,10.40
2019-03-09T09:52:57.975Z,10.40
2019-03-09T09:55:28.983Z,10.30
2019-03-09T09:58:00.055Z,10.30
2019-03-09T10:00:30.358Z,10.30
2019-03-09T10:03:01.986Z,10.30
2019-03-09T10:05:32.686Z,10.50
2019-03-09T10:08:03.917Z,10.40
2019-03-09T10:10:35.276Z,10.40
2019-03-09T10:13:05.874Z,10.40
2019-03-09T10:15:36.916Z,10.50
2019-03-09T10:18:08.343Z,10.60
2019-03-09T10:20:39.422Z,10.80
2019-03-09T10:23:11.289Z,11.00
2019-03-09T10:25:45.307Z,11.00
2019-03-09T10:28:16.546Z,11.10
2019-03-09T10:30:47.678Z,11.30
2019-03-09T10:33:19.162Z,11.50
2019-03-09T10:36:05.647Z,11.70
2019-03-09T10:38:37.021Z,11.70
2019-03-09T10:41:08.657Z,11.70
2019-03-09T10:43:40.361Z,11.80
2019-03-09T10:46:11.249Z,11.80
2019-03-09T10:48:42.616Z,11.90
2019-03-09T10:51:13.236Z,11.90
2019-03-09T10:53:44.665Z,11.90
2019-03-09T10:56:16.310Z,12.30
2019-03-09T10:58:50.976Z,12.40
2019-03-09T11:01:22.612Z,12.60
2019-03-09T11:03:54.718Z,12.70
2019-03-09T11:06:25.407Z,13.10
2019-03-09T11:08:56.143Z,13.30
2019-03-09T11:11:26.785Z,13.40
2019-03-09T11:14:15.401Z,13.50
2019-03-09T11:16:55.771Z,13.50
2019-03-09T11:19:27.100Z,13.40
2019-03-09T11:21:58.262Z,13.00
2019-03-09T11:24:39.636Z,13.20
2019-03-09T11:27:14.279Z,13.20
2019-03-09T11:29:44.916Z,13.20
2019-03-09T11:32:16.918Z,13.20
2019-03-09T11:34:48.229Z,13.00
2019-03-09T11:37:19.190Z,12.90
2019-03-09T11:39:50.278Z,12.70
2019-03-09T11:42:21.300Z,12.70
2019-03-09T11:44:52.298Z,12.80
2019-03-09T11:47:23.714Z,12.90
2019-03-09T11:49:54.394Z,13.00
2019-03-09T11:52:25.600Z,12.60
2019-03-09T11:54:57.002Z,12.50
2019-03-09T11:57:28.601Z,12.50
2019-03-09T11:59:59.552Z,12.60
2019-03-09T12:02:38.580Z,12.70
2019-03-09T12:05:03.776Z,12.80
2019-03-09T12:07:35.029Z,12.60
2019-03-09T12:10:06.391Z,12.50
2019-03-09T12:12:37.434Z,12.60
2019-03-09T12:15:09.747Z,12.60
2019-03-09T12:17:41.015Z,12.60
2019-03-09T12:20:12.930Z,12.40
2019-03-09T12:22:46.213Z,12.30
2019-03-09T12:25:16.485Z,12.30
2019-03-09T12:27:55.611Z,12.40
2019-03-09T12:30:31.328Z,12.40
2019-03-09T12:33:03.048Z,12.20
2019-03-09T12:35:36.383Z,12.20
2019-03-09T12:38:07.846Z,12.10
2019-03-09T12:40:39.841Z,12.30
2019-03-09T12:43:20.697Z,12.20
2019-03-09T12:45:51.707Z,12.10
2019-03-09T12:48:23.426Z,12.20
2019-03-09T12:50:54.754Z,12.30
2019-03-09T12:53:29.618Z,12.30
2019-03-09T12:56:00.321Z,12.20
2019-03-09T12:58:31.746Z,12.10
2019-03-09T13:01:02.956Z,12.20
2019-03-09T13:03:38.048Z,12.40
2019-03-09T13:06:09.350Z,12.60
2019-03-09T13:09:00.101Z,12.80
2019-03-09T13:11:31.485Z,12.70
2019-03-09T13:14:03.519Z,12.60
2019-03-09T13:16:34.970Z,12.70
2019-03-09T13:19:05.716Z,12.60
2019-03-09T13:21:42.186Z,12.50
2019-03-09T13:24:12.811Z,12.40
2019-03-09T13:26:44.466Z,12.30
2019-03-09T13:29:15.321Z,12.20
2019-03-09T13:31:47.115Z,12.20
2019-03-09T13:34:21.488Z,12.30
2019-03-09T13:36:53.147Z,12.30
2019-03-09T13:39:23.877Z,12.20
2019-03-09T13:41:54.953Z,12.30
2019-03-09T13:44:25.562Z,12.30
2019-03-09T13:46:56.778Z,12.30
2019-03-09T13:49:28.123Z,12.10
2019-03-09T13:51:59.062Z,12.00
2019-03-09T13:54:29.975Z,11.80
2019-03-09T13:57:02.289Z,11.90
2019-03-09T13:59:34.035Z,11.90
2019-03-09T14:02:06.118Z,12.10
2019-03-09T14:04:39.769Z,12.10
2019-03-09T14:07:11.211Z,12.30
2019-03-09T14:09:42.351Z,12.20
2019-03-09T14:12:13.660Z,12.30
2019-03-09T14:14:45.701Z,12.30
2019-03-09T14:17:17.016Z,12.40
2019-03-09T14:19:48.436Z,12.50
2019-03-09T14:22:19.187Z,12.40
2019-03-09T14:24:51.752Z,12.30
2019-03-09T14:27:22.773Z,12.40
2019-03-09T14:29:54.922Z,12.70
2019-03-09T14:32:25.762Z,12.90
2019-03-09T14:34:57.102Z,12.70
2019-03-09T14:37:28.823Z,12.50
2019-03-09T14:39:59.922Z,12.40
2019-03-09T14:42:31.338Z,12.10
2019-03-09T14:45:02.707Z,12.00
2019-03-09T14:47:34.013Z,11.90
2019-03-09T14:50:05.546Z,11.70
2019-03-09T14:52:36.235Z,11.70
2019-03-09T14:55:08.417Z,11.50
2019-03-09T14:57:39.836Z,11.40
2019-03-09T15:00:16.639Z,11.20
2019-03-09T15:02:47.357Z,11.00
2019-03-09T15:05:18.828Z,10.80
2019-03-09T15:07:54.394Z,10.50
2019-03-09T15:10:25.321Z,10.40
2019-03-09T15:12:56.397Z,10.20
2019-03-09T15:15:28.441Z,10.10
2019-03-09T15:17:59.639Z,10.10
2019-03-09T15:20:31.124Z,10.00
2019-03-09T15:23:02.243Z,9.80
2019-03-09T15:25:36.025Z,9.70
2019-03-09T15:28:09.008Z,9.60
2019-03-09T15:30:39.996Z,9.40
2019-03-09T15:33:11.512Z,9.40
2019-03-09T15:35:42.588Z,9.40
2019-03-09T15:38:17.493Z,9.40
2019-03-09T15:40:49.755Z,9.50
2019-03-09T15:43:21.629Z,9.50
2019-03-09T15:45:52.554Z,9.50
2019-03-09T15:48:23.230Z,9.60
2019-03-09T15:50:54.958Z,9.60
2019-03-09T15:53:30.201Z,9.60
2019-03-09T15:56:01.832Z,9.70
2019-03-09T15:58:43.060Z,9.60
2019-03-09T16:01:14.063Z,9.60
2019-03-09T16:03:53.085Z,9.60
2019-03-09T16:06:24.004Z,9.60
2019-03-09T16:08:54.643Z,9.70
2019-03-09T16:11:26.127Z,9.80
2019-03-09T16:13:57.878Z,9.80
2019-03-09T16:16:29.607Z,9.80
2019-03-09T16:19:00.934Z,9.90
2019-03-09T16:21:32.056Z,10.00
2019-03-09T16:24:03.488Z,10.10
2019-03-09T16:26:34.275Z,10.10
2019-03-09T16:29:04.931Z,10.20
2019-03-09T16:31:42.780Z,10.20
2019-03-09T16:34:13.365Z,10.20
2019-03-09T16:36:44.763Z,10.20
2019-03-09T16:39:16.087Z,10.10
2019-03-09T16:41:47.738Z,10.10
2019-03-09T16:44:18.415Z,10.10
2019-03-09T16:46:49.386Z,10.10
2019-03-09T16:49:20.448Z,10.10
2019-03-09T16:51:50.732Z,10.10
2019-03-09T16:54:36.253Z,10.10
2019-03-09T16:57:08.025Z,10.20
2019-03-09T16:59:38.625Z,10.20
2019-03-09T17:02:09.695Z,10.20
2019-03-09T17:04:41.139Z,10.20
2019-03-09T17:07:11.776Z,10.30
2019-03-09T17:09:42.488Z,10.10
2019-03-09T17:12:14.118Z,10.10
2019-03-09T17:14:44.754Z,10.10
2019-03-09T17:17:16.362Z,10.10
2019-03-09T17:19:47.481Z,10.10
2019-03-09T17:22:18.793Z,10.00
2019-03-09T17:24:50.176Z,10.00
2019-03-09T17:27:21.651Z,10.00
2019-03-09T17:29:52.701Z,9.90
2019-03-09T17:32:25.956Z,9.90
2019-03-09T17:34:56.720Z,9.90
2019-03-09T17:37:27.816Z,10.00
2019-03-09T17:39:59.088Z,10.00
2019-03-09T17:42:29.790Z,10.10
2019-03-09T17:45:01.744Z,10.00
2019-03-09T17:47:36.124Z,9.90
2019-03-09T17:50:09.322Z,10.00
2019-03-09T17:52:40.314Z,10.00
2019-03-09T17:55:11.094Z,10.00
2019-03-09T17:57:42.903Z,10.00
2019-03-09T18:00:26.027Z,10.00
2019-03-09T18:02:57.786Z,10.00
2019-03-09T18:05:29.246Z,10.10
2019-03-09T18:08:00.923Z,10.10
2019-03-09T18:10:47.069Z,10.10
2019-03-09T18:13:25.138Z,10.20
2019-03-09T18:15:57.675Z,10.20
2019-03-09T18:18:29.166Z,10.20
2019-03-09T18:21:01.322Z,10.20
2019-03-09T18:23:32.327Z,10.30
2019-03-09T18:26:03.792Z,10.30
2019-03-09T18:28:34.551Z,10.30
2019-03-09T18:31:05.128Z,10.30
2019-03-09T18:33:36.533Z,10.40
2019-03-09T18:36:08.014Z,10.40
2019-03-09T18:38:38.987Z,10.40
2019-03-09T18:41:10.489Z,10.50
2019-03-09T18:43:41.259Z,10.60
2019-03-09T18:46:13.837Z,10.60
2019-03-09T18:48:44.746Z,10.50
2019-03-09T18:51:16.258Z,10.50
2019-03-09T18:53:48.217Z,10.50
2019-03-09T18:56:19.535Z,10.50
2019-03-09T18:58:51.480Z,10.50
2019-03-09T19:01:22.519Z,10.50
2019-03-09T19:03:54.166Z,10.60
2019-03-09T19:06:25.916Z,10.60
2019-03-09T19:08:58.772Z,10.60
2019-03-09T19:11:29.765Z,10.60
2019-03-09T19:14:00.558Z,10.60
2019-03-09T19:16:52.570Z,10.60
2019-03-09T19:19:23.585Z,10.60
2019-03-09T19:21:54.232Z,10.60
2019-03-09T19:24:25.428Z,10.80
2019-03-09T19:26:56.400Z,10.70
2019-03-09T19:29:27.869Z,10.70
2019-03-09T19:31:59.028Z,10.80
2019-03-09T19:34:30.143Z,10.80
2019-03-09T19:37:00.889Z,10.80
2019-03-09T19:39:32.641Z,10.90
2019-03-09T19:42:03.343Z,10.90
2019-03-09T19:44:34.807Z,11.00
2019-03-09T19:47:06.583Z,10.90
2019-03-09T19:49:37.387Z,10.90
2019-03-09T19:52:09.243Z,10.90
2019-03-09T19:54:40.984Z,11.00
2019-03-09T19:57:11.973Z,11.00
2019-03-09T19:59:42.628Z,11.00
2019-03-09T20:02:13.921Z,11.10
2019-03-09T20:04:45.282Z,11.10
2019-03-09T20:07:16.340Z,11.10
2019-03-09T20:09:47.726Z,11.10
2019-03-09T20:12:20.842Z,11.20
2019-03-09T20:14:51.301Z,11.20
2019-03-09T20:17:23.071Z,11.10
2019-03-09T20:19:54.418Z,11.20
2019-03-09T20:22:26.170Z,11.10
2019-03-09T20:24:57.205Z,11.20
2019-03-09T20:27:29.363Z,11.20
2019-03-09T20:29:59.701Z,11.10
2019-03-09T20:32:30.250Z,11.20
2019-03-09T20:35:02.301Z,11.20
2019-03-09T20:37:33.558Z,11.30
2019-03-09T20:40:05.234Z,11.30
2019-03-09T20:42:36.651Z,11.20
2019-03-09T20:45:11.532Z,11.20
2019-03-09T20:47:43.158Z,11.20
2019-03-09T20:50:15.601Z,11.20
2019-03-09T20:52:47.072Z,11.20
2019-03-09T20:55:18.682Z,11.20
2019-03-09T20:57:49.565Z,11.10
2019-03-09T21:00:20.292Z,11.20
2019-03-09T21:02:51.103Z,11.20
2019-03-09T21:05:21.866Z,11.10
2019-03-09T21:07:53.649Z,11.10
2019-03-09T21:10:24.800Z,11.10
2019-03-09T21:13:01.155Z,11.00
2019-03-09T21:15:32.725Z,11.00
2019-03-09T21:18:03.801Z,10.90
2019-03-09T21:20:34.915Z,10.90
2019-03-09T21:23:06.604Z,10.90
2019-03-09T21:25:37.667Z,10.90
2019-03-09T21:28:09.014Z,11.00
2019-03-09T21:30:39.634Z,11.00
2019-03-09T21:33:11.363Z,10.90
2019-03-09T21:35:42.019Z,10.90
2019-03-09T21:38:13.394Z,11.00
2019-03-09T21:40:43.995Z,11.00
2019-03-09T21:43:15.360Z,10.90
2019-03-09T21:45:46.701Z,10.80
2019-03-09T21:48:18.153Z,10.80
2019-03-09T21:50:49.298Z,10.80
2019-03-09T21:53:20.564Z,10.80
2019-03-09T21:55:52.144Z,10.80
2019-03-09T21:58:23.166Z,10.80
2019-03-09T22:00:54.217Z,10.80
2019-03-09T22:03:25.475Z,10.70
2019-03-09T22:06:05.742Z,10.70
2019-03-09T22:08:31.210Z,10.70
2019-03-09T22:11:03.194Z,10.60
2019-03-09T22:13:37.209Z,10.60
2019-03-09T22:16:09.918Z,10.50
2019-03-09T22:18:41.697Z,10.50
2019-03-09T22:21:13.070Z,10.50
2019-03-09T22:23:47.090Z,10.50
2019-03-09T22:26:18.215Z,10.60
2019-03-09T22:28:54.938Z,10.50
2019-03-09T22:31:26.241Z,10.50
2019-03-09T22:33:56.853Z,10.40
2019-03-09T22:36:28.327Z,10.30
2019-03-09T22:39:09.605Z,10.20
2019-03-09T22:41:41.181Z,10.10
2019-03-09T22:44:12.764Z,10.00
2019-03-09T22:46:48.356Z,9.90
2019-03-09T22:49:19.807Z,9.80
2019-03-09T22:51:51.456Z,9.90
2019-03-09T22:54:53.695Z,9.90
2019-03-09T22:57:24.831Z,9.90
2019-03-09T22:59:56.188Z,9.80
2019-03-09T23:02:26.985Z,10.00
2019-03-09T23:05:32.478Z,9.90
2019-03-09T23:08:02.869Z,10.10
2019-03-09T23:10:34.320Z,10.10
2019-03-09T23:13:06.486Z,10.10
2019-03-09T23:15:43.822Z,10.20
2019-03-09T23:18:19.723Z,10.30
2019-03-09T23:20:50.634Z,10.30
2019-03-09T23:23:28.567Z,10.30
2019-03-09T23:25:59.644Z,10.30
2019-03-09T23:28:46.953Z,10.20
2019-03-09T23:31:17.987Z,10.20
2019-03-09T23:33:49.076Z,10.30
2019-03-09T23:36:19.883Z,10.40
2019-03-09T23:38:51.561Z,10.40
2019-03-09T23:41:22.596Z,10.40
2019-03-09T23:44:13.748Z,10.40
2019-03-09T23:46:45.367Z,10.30
2019-03-09T23:49:19.187Z,10.30
2019-03-09T23:51:50.054Z,10.20
2019-03-09T23:54:21.441Z,10.20
2019-03-09T23:56:52.786Z,10.20
2019-03-09T23:59:23.727Z,10.20
